sensor_id;sensor_type;location;lat;lon;timestamp;temperature;humidity
38480;DHT22;62333;51.980;5.934;2023-03-31T00:01:29;13.00;91.40
38480;DHT22;62333;51.980;5.934;2023-03-31T00:03:55;13.00;91.40
38480;DHT22;62333;51.980;5.934;2023-03-31T00:06:31;13.00;91.40
38480;DHT22;62333;51.980;5.934;2023-03-31T00:09:03;13.00;91.50
38480;DHT22;62333;51.980;5.934;2023-03-31T00:11:29;13.00;91.50
38480;DHT22;62333;51.980;5.934;2023-03-31T00:13:55;12.90;91.70
38480;DHT22;62333;51.980;5.934;2023-03-31T00:16:20;12.90;91.70
38480;DHT22;62333;51.980;5.934;2023-03-31T00:18:46;12.90;91.80
38480;DHT22;62333;51.980;5.934;2023-03-31T00:21:18;12.90;91.80
38480;DHT22;62333;51.980;5.934;2023-03-31T00:23:54;12.80;92.00
38480;DHT22;62333;51.980;5.934;2023-03-31T00:26:20;12.80;92.00
38480;DHT22;62333;51.980;5.934;2023-03-31T00:28:48;12.80;92.10
38480;DHT22;62333;51.980;5.934;2023-03-31T00:31:14;12.70;92.10
38480;DHT22;62333;51.980;5.934;2023-03-31T00:33:40;12.70;92.20
38480;DHT22;62333;51.980;5.934;2023-03-31T00:36:06;12.70;92.30
38480;DHT22;62333;51.980;5.934;2023-03-31T00:38:32;12.70;92.30
38480;DHT22;62333;51.980;5.934;2023-03-31T00:40:59;12.70;92.40
38480;DHT22;62333;51.980;5.934;2023-03-31T00:43:33;12.70;92.30
38480;DHT22;62333;51.980;5.934;2023-03-31T00:46:19;12.70;92.40
38480;DHT22;62333;51.980;5.934;2023-03-31T00:48:53;12.70;92.40
38480;DHT22;62333;51.980;5.934;2023-03-31T00:51:26;12.70;92.50
38480;DHT22;62333;51.980;5.934;2023-03-31T00:53:56;12.70;92.50
38480;DHT22;62333;51.980;5.934;2023-03-31T00:56:32;12.70;92.50
38480;DHT22;62333;51.980;5.934;2023-03-31T00:59:01;12.70;92.50
38480;DHT22;62333;51.980;5.934;2023-03-31T01:01:28;12.70;92.60
38480;DHT22;62333;51.980;5.934;2023-03-31T01:03:55;12.70;92.50
38480;DHT22;62333;51.980;5.934;2023-03-31T01:06:22;12.80;92.60
38480;DHT22;62333;51.980;5.934;2023-03-31T01:08:50;12.80;92.90
38480;DHT22;62333;51.980;5.934;2023-03-31T01:11:19;12.70;93.10
38480;DHT22;62333;51.980;5.934;2023-03-31T01:13:47;12.60;93.60
38480;DHT22;62333;51.980;5.934;2023-03-31T01:16:15;12.50;93.70
38480;DHT22;62333;51.980;5.934;2023-03-31T01:18:42;12.50;93.90
38480;DHT22;62333;51.980;5.934;2023-03-31T01:40:11;12.20;94.60
38480;DHT22;62333;51.980;5.934;2023-03-31T01:47:49;12.20;94.60
38480;DHT22;62333;51.980;5.934;2023-03-31T01:50:29;12.20;94.60
38480;DHT22;62333;51.980;5.934;2023-03-31T01:55:59;12.20;94.80
38480;DHT22;62333;51.980;5.934;2023-03-31T01:58:35;12.20;94.90
38480;DHT22;62333;51.980;5.934;2023-03-31T02:01:11;12.10;95.20
38480;DHT22;62333;51.980;5.934;2023-03-31T02:03:43;12.10;95.50
38480;DHT22;62333;51.980;5.934;2023-03-31T02:06:16;12.10;95.50
38480;DHT22;62333;51.980;5.934;2023-03-31T02:08:48;12.10;95.50
38480;DHT22;62333;51.980;5.934;2023-03-31T02:11:15;12.10;95.60
38480;DHT22;62333;51.980;5.934;2023-03-31T02:13:42;12.10;95.70
38480;DHT22;62333;51.980;5.934;2023-03-31T02:16:12;12.10;95.70
38480;DHT22;62333;51.980;5.934;2023-03-31T02:18:44;12.10;95.80
38480;DHT22;62333;51.980;5.934;2023-03-31T02:21:13;12.10;95.70
38480;DHT22;62333;51.980;5.934;2023-03-31T02:23:39;12.20;95.70
38480;DHT22;62333;51.980;5.934;2023-03-31T02:26:30;12.20;95.70
38480;DHT22;62333;51.980;5.934;2023-03-31T02:28:58;12.20;95.70
38480;DHT22;62333;51.980;5.934;2023-03-31T02:33:58;12.20;95.70
38480;DHT22;62333;51.980;5.934;2023-03-31T02:36:25;12.20;95.70
38480;DHT22;62333;51.980;5.934;2023-03-31T02:38:55;12.20;95.70
38480;DHT22;62333;51.980;5.934;2023-03-31T02:41:22;12.20;95.70
38480;DHT22;62333;51.980;5.934;2023-03-31T02:43:48;12.20;95.80
38480;DHT22;62333;51.980;5.934;2023-03-31T02:46:13;12.20;95.90
38480;DHT22;62333;51.980;5.934;2023-03-31T02:48:46;12.20;95.90
38480;DHT22;62333;51.980;5.934;2023-03-31T03:16:20;12.20;95.50
38480;DHT22;62333;51.980;5.934;2023-03-31T03:18:59;12.30;95.50
38480;DHT22;62333;51.980;5.934;2023-03-31T03:21:26;12.30;95.40
38480;DHT22;62333;51.980;5.934;2023-03-31T03:23:52;12.30;95.40
38480;DHT22;62333;51.980;5.934;2023-03-31T03:26:19;12.30;95.40
38480;DHT22;62333;51.980;5.934;2023-03-31T03:28:46;12.30;95.40
38480;DHT22;62333;51.980;5.934;2023-03-31T03:31:13;12.30;95.30
38480;DHT22;62333;51.980;5.934;2023-03-31T03:33:40;12.30;95.40
38480;DHT22;62333;51.980;5.934;2023-03-31T03:36:06;12.30;95.40
38480;DHT22;62333;51.980;5.934;2023-03-31T03:38:32;12.30;95.50
38480;DHT22;62333;51.980;5.934;2023-03-31T03:40:58;12.20;95.50
38480;DHT22;62333;51.980;5.934;2023-03-31T03:43:24;12.20;95.70
38480;DHT22;62333;51.980;5.934;2023-03-31T03:45:50;12.20;95.70
38480;DHT22;62333;51.980;5.934;2023-03-31T03:48:16;12.20;95.70
38480;DHT22;62333;51.980;5.934;2023-03-31T03:50:44;12.20;95.90
38480;DHT22;62333;51.980;5.934;2023-03-31T03:53:10;12.10;95.90
38480;DHT22;62333;51.980;5.934;2023-03-31T03:55:36;12.10;95.90
38480;DHT22;62333;51.980;5.934;2023-03-31T03:58:01;12.20;95.90
38480;DHT22;62333;51.980;5.934;2023-03-31T04:00:27;12.10;96.00
38480;DHT22;62333;51.980;5.934;2023-03-31T04:02:53;12.20;96.00
38480;DHT22;62333;51.980;5.934;2023-03-31T04:05:18;12.20;96.00
38480;DHT22;62333;51.980;5.934;2023-03-31T04:07:44;12.10;96.20
38480;DHT22;62333;51.980;5.934;2023-03-31T04:10:10;12.10;96.30
38480;DHT22;62333;51.980;5.934;2023-03-31T04:12:35;12.10;96.20
38480;DHT22;62333;51.980;5.934;2023-03-31T04:15:02;12.10;96.10
38480;DHT22;62333;51.980;5.934;2023-03-31T04:17:27;12.10;96.70
38480;DHT22;62333;51.980;5.934;2023-03-31T04:20:08;12.00;96.80
38480;DHT22;62333;51.980;5.934;2023-03-31T04:22:37;11.90;96.80
38480;DHT22;62333;51.980;5.934;2023-03-31T04:25:07;11.90;96.80
38480;DHT22;62333;51.980;5.934;2023-03-31T04:27:43;11.90;96.80
38480;DHT22;62333;51.980;5.934;2023-03-31T04:30:16;11.90;96.80
38480;DHT22;62333;51.980;5.934;2023-03-31T04:32:52;11.80;96.80
38480;DHT22;62333;51.980;5.934;2023-03-31T04:35:20;11.80;96.90
38480;DHT22;62333;51.980;5.934;2023-03-31T04:37:51;11.80;97.20
38480;DHT22;62333;51.980;5.934;2023-03-31T04:40:23;11.70;97.20
38480;DHT22;62333;51.980;5.934;2023-03-31T04:42:49;11.70;97.20
38480;DHT22;62333;51.980;5.934;2023-03-31T04:45:16;11.70;97.30
38480;DHT22;62333;51.980;5.934;2023-03-31T04:47:42;11.70;97.30
38480;DHT22;62333;51.980;5.934;2023-03-31T04:50:09;11.70;97.30
38480;DHT22;62333;51.980;5.934;2023-03-31T04:52:37;11.70;97.60
38480;DHT22;62333;51.980;5.934;2023-03-31T04:55:04;11.70;97.30
38480;DHT22;62333;51.980;5.934;2023-03-31T04:57:30;11.70;97.30
38480;DHT22;62333;51.980;5.934;2023-03-31T04:59:56;11.70;97.30
38480;DHT22;62333;51.980;5.934;2023-03-31T05:02:22;11.70;97.40
38480;DHT22;62333;51.980;5.934;2023-03-31T05:04:51;11.70;97.40
38480;DHT22;62333;51.980;5.934;2023-03-31T05:07:18;11.70;97.40
38480;DHT22;62333;51.980;5.934;2023-03-31T05:09:44;11.60;97.50
38480;DHT22;62333;51.980;5.934;2023-03-31T05:12:10;11.60;97.60
38480;DHT22;62333;51.980;5.934;2023-03-31T05:14:36;11.60;97.60
38480;DHT22;62333;51.980;5.934;2023-03-31T05:17:01;11.60;97.70
38480;DHT22;62333;51.980;5.934;2023-03-31T05:19:27;11.60;97.80
38480;DHT22;62333;51.980;5.934;2023-03-31T05:21:53;11.50;97.80
38480;DHT22;62333;51.980;5.934;2023-03-31T05:24:18;11.50;97.80
38480;DHT22;62333;51.980;5.934;2023-03-31T05:26:44;11.50;97.80
38480;DHT22;62333;51.980;5.934;2023-03-31T05:29:14;11.50;97.80
38480;DHT22;62333;51.980;5.934;2023-03-31T05:31:41;11.50;97.80
38480;DHT22;62333;51.980;5.934;2023-03-31T05:34:07;11.60;97.80
38480;DHT22;62333;51.980;5.934;2023-03-31T05:36:32;11.60;97.80
38480;DHT22;62333;51.980;5.934;2023-03-31T05:38:59;11.60;97.80
38480;DHT22;62333;51.980;5.934;2023-03-31T05:41:25;11.60;97.80
38480;DHT22;62333;51.980;5.934;2023-03-31T05:43:50;11.50;97.80
38480;DHT22;62333;51.980;5.934;2023-03-31T05:46:16;11.50;97.80
38480;DHT22;62333;51.980;5.934;2023-03-31T05:48:42;11.50;97.80
38480;DHT22;62333;51.980;5.934;2023-03-31T05:51:09;11.50;97.90
38480;DHT22;62333;51.980;5.934;2023-03-31T05:53:35;11.50;97.90
38480;DHT22;62333;51.980;5.934;2023-03-31T05:56:02;11.50;98.00
38480;DHT22;62333;51.980;5.934;2023-03-31T05:58:29;11.50;98.00
38480;DHT22;62333;51.980;5.934;2023-03-31T06:01:09;11.50;98.10
38480;DHT22;62333;51.980;5.934;2023-03-31T06:03:37;11.50;98.20
38480;DHT22;62333;51.980;5.934;2023-03-31T06:06:04;11.50;98.20
38480;DHT22;62333;51.980;5.934;2023-03-31T06:08:31;11.40;98.30
38480;DHT22;62333;51.980;5.934;2023-03-31T06:10:57;11.40;98.30
38480;DHT22;62333;51.980;5.934;2023-03-31T06:13:23;11.40;98.60
38480;DHT22;62333;51.980;5.934;2023-03-31T06:15:56;11.40;98.40
38480;DHT22;62333;51.980;5.934;2023-03-31T06:18:22;11.40;98.40
38480;DHT22;62333;51.980;5.934;2023-03-31T06:20:48;11.40;98.50
38480;DHT22;62333;51.980;5.934;2023-03-31T06:23:13;11.40;98.50
38480;DHT22;62333;51.980;5.934;2023-03-31T06:25:39;11.40;98.50
38480;DHT22;62333;51.980;5.934;2023-03-31T06:28:05;11.50;98.40
38480;DHT22;62333;51.980;5.934;2023-03-31T06:30:32;11.40;98.40
38480;DHT22;62333;51.980;5.934;2023-03-31T06:32:58;11.40;98.30
38480;DHT22;62333;51.980;5.934;2023-03-31T06:35:23;11.40;98.20
38480;DHT22;62333;51.980;5.934;2023-03-31T06:37:49;11.40;98.20
38480;DHT22;62333;51.980;5.934;2023-03-31T06:40:15;11.50;98.10
38480;DHT22;62333;51.980;5.934;2023-03-31T06:42:41;11.50;98.00
38480;DHT22;62333;51.980;5.934;2023-03-31T06:45:07;11.50;97.90
38480;DHT22;62333;51.980;5.934;2023-03-31T06:47:33;11.60;97.80
38480;DHT22;62333;51.980;5.934;2023-03-31T06:49:58;11.60;97.80
38480;DHT22;62333;51.980;5.934;2023-03-31T06:52:24;11.70;97.70
38480;DHT22;62333;51.980;5.934;2023-03-31T06:54:50;11.80;97.70
38480;DHT22;62333;51.980;5.934;2023-03-31T06:57:15;11.80;97.50
38480;DHT22;62333;51.980;5.934;2023-03-31T06:59:41;11.80;97.40
38480;DHT22;62333;51.980;5.934;2023-03-31T07:02:09;11.80;97.30
38480;DHT22;62333;51.980;5.934;2023-03-31T07:04:35;11.70;97.30
38480;DHT22;62333;51.980;5.934;2023-03-31T07:07:00;11.70;97.40
38480;DHT22;62333;51.980;5.934;2023-03-31T07:09:26;11.70;97.40
38480;DHT22;62333;51.980;5.934;2023-03-31T07:11:52;11.80;97.30
38480;DHT22;62333;51.980;5.934;2023-03-31T07:14:17;11.80;97.30
38480;DHT22;62333;51.980;5.934;2023-03-31T07:16:43;11.80;97.30
38480;DHT22;62333;51.980;5.934;2023-03-31T07:24:30;11.90;97.10
38480;DHT22;62333;51.980;5.934;2023-03-31T07:26:57;12.00;97.10
38480;DHT22;62333;51.980;5.934;2023-03-31T07:29:23;12.00;97.10
38480;DHT22;62333;51.980;5.934;2023-03-31T07:31:48;12.00;97.00
38480;DHT22;62333;51.980;5.934;2023-03-31T07:34:15;12.00;97.00
38480;DHT22;62333;51.980;5.934;2023-03-31T07:36:40;12.00;97.00
38480;DHT22;62333;51.980;5.934;2023-03-31T07:39:06;12.00;97.00
38480;DHT22;62333;51.980;5.934;2023-03-31T07:41:32;12.00;97.00
38480;DHT22;62333;51.980;5.934;2023-03-31T07:43:57;12.00;97.00
38480;DHT22;62333;51.980;5.934;2023-03-31T07:46:25;12.00;97.10
38480;DHT22;62333;51.980;5.934;2023-03-31T07:48:53;11.90;97.10
38480;DHT22;62333;51.980;5.934;2023-03-31T07:51:22;12.00;97.10
38480;DHT22;62333;51.980;5.934;2023-03-31T07:53:48;11.90;97.10
38480;DHT22;62333;51.980;5.934;2023-03-31T07:56:14;11.90;97.20
38480;DHT22;62333;51.980;5.934;2023-03-31T07:58:42;11.90;97.10
38480;DHT22;62333;51.980;5.934;2023-03-31T08:01:07;11.90;97.20
38480;DHT22;62333;51.980;5.934;2023-03-31T08:03:33;11.90;97.20
38480;DHT22;62333;51.980;5.934;2023-03-31T08:05:59;11.90;97.20
38480;DHT22;62333;51.980;5.934;2023-03-31T08:08:25;11.90;97.20
38480;DHT22;62333;51.980;5.934;2023-03-31T08:10:51;11.90;97.20
38480;DHT22;62333;51.980;5.934;2023-03-31T08:13:17;11.90;97.20
38480;DHT22;62333;51.980;5.934;2023-03-31T08:15:43;11.90;97.20
38480;DHT22;62333;51.980;5.934;2023-03-31T08:18:09;11.90;97.30
38480;DHT22;62333;51.980;5.934;2023-03-31T08:20:34;11.90;97.40
38480;DHT22;62333;51.980;5.934;2023-03-31T08:23:01;11.90;97.40
38480;DHT22;62333;51.980;5.934;2023-03-31T08:25:26;11.90;97.40
38480;DHT22;62333;51.980;5.934;2023-03-31T08:27:52;11.90;97.60
38480;DHT22;62333;51.980;5.934;2023-03-31T08:30:19;11.90;97.60
38480;DHT22;62333;51.980;5.934;2023-03-31T08:32:45;12.00;97.50
38480;DHT22;62333;51.980;5.934;2023-03-31T08:35:11;12.00;97.60
38480;DHT22;62333;51.980;5.934;2023-03-31T08:37:37;12.00;97.70
38480;DHT22;62333;51.980;5.934;2023-03-31T08:40:06;12.00;97.70
38480;DHT22;62333;51.980;5.934;2023-03-31T08:42:41;12.00;97.80
38480;DHT22;62333;51.980;5.934;2023-03-31T08:45:29;12.00;97.80
38480;DHT22;62333;51.980;5.934;2023-03-31T08:48:13;12.10;97.80
38480;DHT22;62333;51.980;5.934;2023-03-31T08:50:49;12.30;97.70
38480;DHT22;62333;51.980;5.934;2023-03-31T08:53:35;12.40;97.60
38480;DHT22;62333;51.980;5.934;2023-03-31T08:56:03;12.50;97.50
38480;DHT22;62333;51.980;5.934;2023-03-31T09:06:59;12.90;97.00
38480;DHT22;62333;51.980;5.934;2023-03-31T09:09:49;13.00;96.90
38480;DHT22;62333;51.980;5.934;2023-03-31T09:17:52;13.10;96.70
38480;DHT22;62333;51.980;5.934;2023-03-31T09:20:30;13.10;96.50
38480;DHT22;62333;51.980;5.934;2023-03-31T09:25:43;13.20;96.50
38480;DHT22;62333;51.980;5.934;2023-03-31T09:28:21;13.20;96.50
38480;DHT22;62333;51.980;5.934;2023-03-31T09:30:48;13.30;96.40
38480;DHT22;62333;51.980;5.934;2023-03-31T09:33:18;13.40;96.40
38480;DHT22;62333;51.980;5.934;2023-03-31T09:35:44;13.40;96.30
38480;DHT22;62333;51.980;5.934;2023-03-31T09:38:11;13.40;96.30
38480;DHT22;62333;51.980;5.934;2023-03-31T09:40:38;13.40;96.30
38480;DHT22;62333;51.980;5.934;2023-03-31T09:43:06;13.40;96.20
38480;DHT22;62333;51.980;5.934;2023-03-31T09:45:33;13.50;96.20
38480;DHT22;62333;51.980;5.934;2023-03-31T09:48:12;13.50;96.10
38480;DHT22;62333;51.980;5.934;2023-03-31T09:51:06;13.50;96.00
38480;DHT22;62333;51.980;5.934;2023-03-31T09:54:06;13.60;96.00
38480;DHT22;62333;51.980;5.934;2023-03-31T09:56:54;13.60;96.00
38480;DHT22;62333;51.980;5.934;2023-03-31T09:59:23;13.70;95.90
38480;DHT22;62333;51.980;5.934;2023-03-31T10:01:57;13.70;95.70
38480;DHT22;62333;51.980;5.934;2023-03-31T10:04:25;13.70;95.70
38480;DHT22;62333;51.980;5.934;2023-03-31T10:06:53;13.80;95.60
38480;DHT22;62333;51.980;5.934;2023-03-31T10:09:20;13.80;95.60
38480;DHT22;62333;51.980;5.934;2023-03-31T10:12:15;13.80;95.10
38480;DHT22;62333;51.980;5.934;2023-03-31T10:14:49;13.80;95.00
38480;DHT22;62333;51.980;5.934;2023-03-31T10:17:21;13.80;94.90
38480;DHT22;62333;51.980;5.934;2023-03-31T10:19:50;13.80;94.80
38480;DHT22;62333;51.980;5.934;2023-03-31T10:22:29;13.80;94.80
38480;DHT22;62333;51.980;5.934;2023-03-31T10:25:12;13.80;94.30
38480;DHT22;62333;51.980;5.934;2023-03-31T10:27:39;13.70;94.20
38480;DHT22;62333;51.980;5.934;2023-03-31T10:30:10;13.70;94.00
38480;DHT22;62333;51.980;5.934;2023-03-31T10:32:43;13.70;93.80
38480;DHT22;62333;51.980;5.934;2023-03-31T10:35:22;13.70;93.30
38480;DHT22;62333;51.980;5.934;2023-03-31T10:37:50;13.60;93.50
38480;DHT22;62333;51.980;5.934;2023-03-31T10:40:29;13.70;93.60
38480;DHT22;62333;51.980;5.934;2023-03-31T10:43:14;13.70;93.40
38480;DHT22;62333;51.980;5.934;2023-03-31T10:45:51;13.70;93.00
38480;DHT22;62333;51.980;5.934;2023-03-31T10:48:33;13.80;92.90
38480;DHT22;62333;51.980;5.934;2023-03-31T10:51:16;13.80;92.50
38480;DHT22;62333;51.980;5.934;2023-03-31T10:53:54;13.90;92.60
38480;DHT22;62333;51.980;5.934;2023-03-31T11:23:45;14.60;90.20
38480;DHT22;62333;51.980;5.934;2023-03-31T11:26:57;14.60;90.10
38480;DHT22;62333;51.980;5.934;2023-03-31T11:38:01;14.50;90.10
38480;DHT22;62333;51.980;5.934;2023-03-31T11:43:50;14.60;90.30
38480;DHT22;62333;51.980;5.934;2023-03-31T11:46:24;14.70;90.20
38480;DHT22;62333;51.980;5.934;2023-03-31T11:49:03;14.60;90.00
38480;DHT22;62333;51.980;5.934;2023-03-31T11:51:53;14.70;90.10
38480;DHT22;62333;51.980;5.934;2023-03-31T11:57:37;14.80;88.90
38480;DHT22;62333;51.980;5.934;2023-03-31T12:00:11;14.90;88.30
38480;DHT22;62333;51.980;5.934;2023-03-31T12:05:48;15.00;87.90
38480;DHT22;62333;51.980;5.934;2023-03-31T12:08:25;14.90;88.10
38480;DHT22;62333;51.980;5.934;2023-03-31T12:11:06;15.00;87.90
38480;DHT22;62333;51.980;5.934;2023-03-31T12:13:35;15.00;87.10
38480;DHT22;62333;51.980;5.934;2023-03-31T12:16:05;14.90;86.70
38480;DHT22;62333;51.980;5.934;2023-03-31T12:19:01;14.70;86.40
38480;DHT22;62333;51.980;5.934;2023-03-31T12:21:25;14.80;86.70
38480;DHT22;62333;51.980;5.934;2023-03-31T12:23:51;14.80;87.10
38480;DHT22;62333;51.980;5.934;2023-03-31T12:26:31;14.90;87.30
38480;DHT22;62333;51.980;5.934;2023-03-31T12:29:11;14.90;86.70
38480;DHT22;62333;51.980;5.934;2023-03-31T12:31:43;14.80;86.70
38480;DHT22;62333;51.980;5.934;2023-03-31T12:34:15;14.80;87.00
38480;DHT22;62333;51.980;5.934;2023-03-31T12:36:57;14.80;87.40
38480;DHT22;62333;51.980;5.934;2023-03-31T12:45:30;14.60;86.80
38480;DHT22;62333;51.980;5.934;2023-03-31T12:50:31;14.60;87.30
38480;DHT22;62333;51.980;5.934;2023-03-31T12:53:21;14.60;87.50
38480;DHT22;62333;51.980;5.934;2023-03-31T12:58:48;14.50;88.40
38480;DHT22;62333;51.980;5.934;2023-03-31T13:08:59;14.40;88.00
38480;DHT22;62333;51.980;5.934;2023-03-31T13:16:51;14.40;87.60
38480;DHT22;62333;51.980;5.934;2023-03-31T13:19:34;14.30;87.30
38480;DHT22;62333;51.980;5.934;2023-03-31T13:22:02;14.30;87.60
38480;DHT22;62333;51.980;5.934;2023-03-31T13:24:30;14.40;87.50
38480;DHT22;62333;51.980;5.934;2023-03-31T13:26:58;14.40;87.00
38480;DHT22;62333;51.980;5.934;2023-03-31T13:29:38;14.30;86.90
38480;DHT22;62333;51.980;5.934;2023-03-31T13:32:07;14.40;87.20
38480;DHT22;62333;51.980;5.934;2023-03-31T13:35:05;14.40;87.40
38480;DHT22;62333;51.980;5.934;2023-03-31T13:42:52;14.40;88.20
38480;DHT22;62333;51.980;5.934;2023-03-31T13:45:49;14.40;88.50
38480;DHT22;62333;51.980;5.934;2023-03-31T13:54:02;14.10;90.00
38480;DHT22;62333;51.980;5.934;2023-03-31T13:59:45;14.00;90.60
38480;DHT22;62333;51.980;5.934;2023-03-31T14:05:30;14.00;91.00
38480;DHT22;62333;51.980;5.934;2023-03-31T14:08:06;13.90;91.10
38480;DHT22;62333;51.980;5.934;2023-03-31T14:10:34;13.80;91.30
38480;DHT22;62333;51.980;5.934;2023-03-31T14:13:12;13.80;91.40
38480;DHT22;62333;51.980;5.934;2023-03-31T14:18:16;13.70;91.80
38480;DHT22;62333;51.980;5.934;2023-03-31T14:26:46;13.70;91.80
38480;DHT22;62333;51.980;5.934;2023-03-31T14:29:50;13.70;91.90
38480;DHT22;62333;51.980;5.934;2023-03-31T14:37:54;13.70;91.60
38480;DHT22;62333;51.980;5.934;2023-03-31T14:40:21;13.70;91.70
38480;DHT22;62333;51.980;5.934;2023-03-31T14:42:47;13.70;91.90
38480;DHT22;62333;51.980;5.934;2023-03-31T14:45:25;13.70;92.00
38480;DHT22;62333;51.980;5.934;2023-03-31T14:48:14;13.60;92.00
38480;DHT22;62333;51.980;5.934;2023-03-31T14:50:45;13.40;92.20
38480;DHT22;62333;51.980;5.934;2023-03-31T14:53:15;13.30;92.50
38480;DHT22;62333;51.980;5.934;2023-03-31T14:55:43;13.30;92.60
38480;DHT22;62333;51.980;5.934;2023-03-31T14:58:13;13.30;92.70
38480;DHT22;62333;51.980;5.934;2023-03-31T15:00:43;13.20;92.80
38480;DHT22;62333;51.980;5.934;2023-03-31T15:03:13;13.20;92.80
38480;DHT22;62333;51.980;5.934;2023-03-31T15:05:40;13.20;92.80
38480;DHT22;62333;51.980;5.934;2023-03-31T15:08:14;13.20;92.80
38480;DHT22;62333;51.980;5.934;2023-03-31T15:10:43;13.20;92.80
38480;DHT22;62333;51.980;5.934;2023-03-31T15:13:42;13.10;93.10
38480;DHT22;62333;51.980;5.934;2023-03-31T15:16:27;13.10;93.30
38480;DHT22;62333;51.980;5.934;2023-03-31T15:18:54;13.00;93.20
38480;DHT22;62333;51.980;5.934;2023-03-31T15:21:22;13.10;93.30
38480;DHT22;62333;51.980;5.934;2023-03-31T15:23:54;13.10;93.30
38480;DHT22;62333;51.980;5.934;2023-03-31T15:26:24;13.10;93.20
38480;DHT22;62333;51.980;5.934;2023-03-31T15:29:28;13.20;93.20
38480;DHT22;62333;51.980;5.934;2023-03-31T15:31:45;13.20;93.20
38480;DHT22;62333;51.980;5.934;2023-03-31T15:34:22;13.30;93.10
38480;DHT22;62333;51.980;5.934;2023-03-31T15:36:54;13.30;93.00
38480;DHT22;62333;51.980;5.934;2023-03-31T15:39:21;13.30;92.80
38480;DHT22;62333;51.980;5.934;2023-03-31T15:41:47;13.40;92.80
38480;DHT22;62333;51.980;5.934;2023-03-31T15:44:38;13.40;92.80
38480;DHT22;62333;51.980;5.934;2023-03-31T15:47:19;13.40;92.70
38480;DHT22;62333;51.980;5.934;2023-03-31T15:49:48;13.40;92.70
38480;DHT22;62333;51.980;5.934;2023-03-31T15:52:26;13.40;92.60
38480;DHT22;62333;51.980;5.934;2023-03-31T15:54:52;13.40;92.60
38480;DHT22;62333;51.980;5.934;2023-03-31T15:57:18;13.40;92.60
38480;DHT22;62333;51.980;5.934;2023-03-31T15:59:49;13.50;92.70
38480;DHT22;62333;51.980;5.934;2023-03-31T16:02:37;13.50;92.70
38480;DHT22;62333;51.980;5.934;2023-03-31T16:05:04;13.50;92.70
38480;DHT22;62333;51.980;5.934;2023-03-31T16:07:32;13.50;92.70
38480;DHT22;62333;51.980;5.934;2023-03-31T16:10:09;13.50;92.70
38480;DHT22;62333;51.980;5.934;2023-03-31T16:12:48;13.40;92.70
38480;DHT22;62333;51.980;5.934;2023-03-31T16:15:19;13.40;92.80
38480;DHT22;62333;51.980;5.934;2023-03-31T16:17:51;13.30;92.70
38480;DHT22;62333;51.980;5.934;2023-03-31T16:20:24;13.30;92.80
38480;DHT22;62333;51.980;5.934;2023-03-31T16:22:54;13.30;92.80
38480;DHT22;62333;51.980;5.934;2023-03-31T16:25:24;13.30;92.70
38480;DHT22;62333;51.980;5.934;2023-03-31T16:27:54;13.20;92.70
38480;DHT22;62333;51.980;5.934;2023-03-31T16:30:38;13.20;92.60
38480;DHT22;62333;51.980;5.934;2023-03-31T16:33:05;13.20;92.70
38480;DHT22;62333;51.980;5.934;2023-03-31T16:35:33;13.10;92.70
38480;DHT22;62333;51.980;5.934;2023-03-31T16:38:00;13.00;92.70
38480;DHT22;62333;51.980;5.934;2023-03-31T16:40:29;13.00;92.70
38480;DHT22;62333;51.980;5.934;2023-03-31T16:43:08;12.90;92.70
38480;DHT22;62333;51.980;5.934;2023-03-31T16:45:34;12.90;92.60
38480;DHT22;62333;51.980;5.934;2023-03-31T16:48:01;12.90;92.70
38480;DHT22;62333;51.980;5.934;2023-03-31T16:50:27;12.90;92.80
38480;DHT22;62333;51.980;5.934;2023-03-31T16:52:53;12.90;92.80
38480;DHT22;62333;51.980;5.934;2023-03-31T16:55:19;12.90;92.80
38480;DHT22;62333;51.980;5.934;2023-03-31T16:57:45;12.90;92.80
38480;DHT22;62333;51.980;5.934;2023-03-31T17:00:11;12.90;92.80
38480;DHT22;62333;51.980;5.934;2023-03-31T17:02:37;12.90;92.90
38480;DHT22;62333;51.980;5.934;2023-03-31T17:05:03;12.90;92.90
38480;DHT22;62333;51.980;5.934;2023-03-31T17:07:29;12.90;93.10
38480;DHT22;62333;51.980;5.934;2023-03-31T17:09:54;12.80;93.30
38480;DHT22;62333;51.980;5.934;2023-03-31T17:12:20;12.60;93.60
38480;DHT22;62333;51.980;5.934;2023-03-31T17:14:46;12.50;93.90
38480;DHT22;62333;51.980;5.934;2023-03-31T17:17:11;12.40;94.20
38480;DHT22;62333;51.980;5.934;2023-03-31T17:19:37;12.40;94.20
38480;DHT22;62333;51.980;5.934;2023-03-31T17:22:03;12.30;94.40
38480;DHT22;62333;51.980;5.934;2023-03-31T17:24:28;12.20;94.60
38480;DHT22;62333;51.980;5.934;2023-03-31T17:26:54;12.20;94.60
38480;DHT22;62333;51.980;5.934;2023-03-31T17:29:20;12.20;94.70
38480;DHT22;62333;51.980;5.934;2023-03-31T17:31:46;12.20;94.90
38480;DHT22;62333;51.980;5.934;2023-03-31T17:34:11;12.10;95.10
38480;DHT22;62333;51.980;5.934;2023-03-31T17:36:37;12.00;95.30
38480;DHT22;62333;51.980;5.934;2023-03-31T17:39:03;12.00;95.20
38480;DHT22;62333;51.980;5.934;2023-03-31T17:41:30;12.00;95.20
38480;DHT22;62333;51.980;5.934;2023-03-31T17:43:56;12.00;95.20
38480;DHT22;62333;51.980;5.934;2023-03-31T17:46:22;12.00;95.30
38480;DHT22;62333;51.980;5.934;2023-03-31T17:48:48;12.00;95.40
38480;DHT22;62333;51.980;5.934;2023-03-31T17:51:17;11.90;95.80
38480;DHT22;62333;51.980;5.934;2023-03-31T17:53:44;11.90;95.90
38480;DHT22;62333;51.980;5.934;2023-03-31T17:56:10;11.80;96.10
38480;DHT22;62333;51.980;5.934;2023-03-31T17:58:36;11.80;96.30
38480;DHT22;62333;51.980;5.934;2023-03-31T18:01:06;11.80;96.30
38480;DHT22;62333;51.980;5.934;2023-03-31T18:03:32;11.80;96.30
38480;DHT22;62333;51.980;5.934;2023-03-31T18:06:03;11.70;96.50
38480;DHT22;62333;51.980;5.934;2023-03-31T18:08:31;11.70;96.80
38480;DHT22;62333;51.980;5.934;2023-03-31T18:10:57;11.60;96.90
38480;DHT22;62333;51.980;5.934;2023-03-31T18:13:23;11.60;97.20
38480;DHT22;62333;51.980;5.934;2023-03-31T18:15:49;11.60;97.10
38480;DHT22;62333;51.980;5.934;2023-03-31T18:18:17;11.60;97.20
38480;DHT22;62333;51.980;5.934;2023-03-31T18:20:43;11.60;97.40
38480;DHT22;62333;51.980;5.934;2023-03-31T18:23:10;11.50;97.50
38480;DHT22;62333;51.980;5.934;2023-03-31T18:25:35;11.60;97.40
38480;DHT22;62333;51.980;5.934;2023-03-31T18:28:01;11.60;97.30
38480;DHT22;62333;51.980;5.934;2023-03-31T18:30:27;11.60;97.40
38480;DHT22;62333;51.980;5.934;2023-03-31T18:32:53;11.60;97.40
38480;DHT22;62333;51.980;5.934;2023-03-31T18:35:19;11.60;97.50
38480;DHT22;62333;51.980;5.934;2023-03-31T18:37:46;11.60;97.60
38480;DHT22;62333;51.980;5.934;2023-03-31T18:40:12;11.60;97.50
38480;DHT22;62333;51.980;5.934;2023-03-31T18:42:39;11.60;97.50
38480;DHT22;62333;51.980;5.934;2023-03-31T18:45:06;11.60;97.60
38480;DHT22;62333;51.980;5.934;2023-03-31T18:47:33;11.50;97.60